sensor_id;sensor_type;location;lat;lon;timestamp;P1;durP1;ratioP1;P2;durP2;ratioP2
8861;SDS011;4799;50.996;4.754;2022-10-15T00:01:15;12.70;;;11.50;;
8861;SDS011;4799;50.996;4.754;2022-10-15T00:03:42;12.37;;;11.27;;
8861;SDS011;4799;50.996;4.754;2022-10-15T00:06:09;15.83;;;14.27;;
8861;SDS011;4799;50.996;4.754;2022-10-15T00:08:37;15.17;;;13.77;;
8861;SDS011;4799;50.996;4.754;2022-10-15T00:11:08;14.93;;;13.43;;
8861;SDS011;4799;50.996;4.754;2022-10-15T00:13:36;15.57;;;14.17;;
8861;SDS011;4799;50.996;4.754;2022-10-15T00:16:02;15.23;;;13.83;;
8861;SDS011;4799;50.996;4.754;2022-10-15T00:18:28;17.97;;;16.07;;
8861;SDS011;4799;50.996;4.754;2022-10-15T00:20:54;20.17;;;18.03;;
8861;SDS011;4799;50.996;4.754;2022-10-15T00:23:20;17.33;;;15.70;;
8861;SDS011;4799;50.996;4.754;2022-10-15T00:25:46;18.53;;;16.73;;
8861;SDS011;4799;50.996;4.754;2022-10-15T00:28:11;20.10;;;18.10;;
8861;SDS011;4799;50.996;4.754;2022-10-15T00:30:37;22.07;;;19.77;;
8861;SDS011;4799;50.996;4.754;2022-10-15T00:33:03;20.70;;;18.73;;
8861;SDS011;4799;50.996;4.754;2022-10-15T00:35:28;21.83;;;19.43;;
8861;SDS011;4799;50.996;4.754;2022-10-15T00:37:54;24.37;;;21.80;;
8861;SDS011;4799;50.996;4.754;2022-10-15T00:40:20;21.73;;;19.63;;
8861;SDS011;4799;50.996;4.754;2022-10-15T00:42:46;22.70;;;20.37;;
8861;SDS011;4799;50.996;4.754;2022-10-15T00:45:13;25.57;;;22.97;;
8861;SDS011;4799;50.996;4.754;2022-10-15T00:47:40;28.57;;;25.47;;
8861;SDS011;4799;50.996;4.754;2022-10-15T00:50:12;26.37;;;23.70;;
8861;SDS011;4799;50.996;4.754;2022-10-15T00:57:53;29.93;;;26.77;;
8861;SDS011;4799;50.996;4.754;2022-10-15T01:00:22;26.93;;;24.20;;
8861;SDS011;4799;50.996;4.754;2022-10-15T01:02:48;29.83;;;26.80;;
8861;SDS011;4799;50.996;4.754;2022-10-15T01:05:15;33.77;;;30.37;;
8861;SDS011;4799;50.996;4.754;2022-10-15T01:07:41;31.70;;;28.43;;
8861;SDS011;4799;50.996;4.754;2022-10-15T01:10:08;30.93;;;27.73;;
8861;SDS011;4799;50.996;4.754;2022-10-15T01:18:14;28.60;;;25.80;;
8861;SDS011;4799;50.996;4.754;2022-10-15T01:20:52;31.10;;;28.00;;
8861;SDS011;4799;50.996;4.754;2022-10-15T01:32:18;34.20;;;30.60;;
8861;SDS011;4799;50.996;4.754;2022-10-15T01:40:23;34.67;;;31.17;;
8861;SDS011;4799;50.996;4.754;2022-10-15T01:42:56;36.67;;;32.97;;
8861;SDS011;4799;50.996;4.754;2022-10-15T01:45:33;35.67;;;32.07;;
8861;SDS011;4799;50.996;4.754;2022-10-15T01:48:03;32.00;;;28.37;;
8861;SDS011;4799;50.996;4.754;2022-10-15T01:50:33;31.93;;;28.80;;
8861;SDS011;4799;50.996;4.754;2022-10-15T01:53:02;33.00;;;29.80;;
8861;SDS011;4799;50.996;4.754;2022-10-15T01:55:30;34.77;;;31.17;;
8861;SDS011;4799;50.996;4.754;2022-10-15T01:57:57;33.83;;;30.37;;
8861;SDS011;4799;50.996;4.754;2022-10-15T02:00:24;37.00;;;33.30;;
8861;SDS011;4799;50.996;4.754;2022-10-15T02:02:50;33.10;;;29.67;;
8861;SDS011;4799;50.996;4.754;2022-10-15T02:05:16;32.53;;;29.30;;
8861;SDS011;4799;50.996;4.754;2022-10-15T02:07:48;37.40;;;33.40;;
8861;SDS011;4799;50.996;4.754;2022-10-15T02:13:31;35.07;;;31.43;;
8861;SDS011;4799;50.996;4.754;2022-10-15T02:21:31;36.20;;;32.37;;
8861;SDS011;4799;50.996;4.754;2022-10-15T02:26:31;35.00;;;31.30;;
8861;SDS011;4799;50.996;4.754;2022-10-15T02:28:58;41.73;;;35.27;;
8861;SDS011;4799;50.996;4.754;2022-10-15T02:31:24;38.77;;;34.53;;
8861;SDS011;4799;50.996;4.754;2022-10-15T02:33:54;39.37;;;34.17;;
8861;SDS011;4799;50.996;4.754;2022-10-15T02:36:24;38.83;;;34.50;;
8861;SDS011;4799;50.996;4.754;2022-10-15T02:38:50;41.77;;;36.17;;
8861;SDS011;4799;50.996;4.754;2022-10-15T02:41:18;38.10;;;33.83;;
8861;SDS011;4799;50.996;4.754;2022-10-15T02:43:45;41.07;;;34.10;;
8861;SDS011;4799;50.996;4.754;2022-10-15T02:46:11;44.13;;;36.10;;
8861;SDS011;4799;50.996;4.754;2022-10-15T02:48:40;44.77;;;37.63;;
8861;SDS011;4799;50.996;4.754;2022-10-15T02:51:05;47.30;;;35.00;;
8861;SDS011;4799;50.996;4.754;2022-10-15T02:53:31;51.07;;;40.40;;
8861;SDS011;4799;50.996;4.754;2022-10-15T02:55:57;47.93;;;37.23;;
8861;SDS011;4799;50.996;4.754;2022-10-15T02:58:23;45.27;;;37.23;;
8861;SDS011;4799;50.996;4.754;2022-10-15T03:00:49;52.43;;;38.63;;
8861;SDS011;4799;50.996;4.754;2022-10-15T03:03:14;54.77;;;40.77;;
8861;SDS011;4799;50.996;4.754;2022-10-15T03:05:40;46.07;;;36.10;;
8861;SDS011;4799;50.996;4.754;2022-10-15T03:08:07;55.13;;;40.97;;
8861;SDS011;4799;50.996;4.754;2022-10-15T03:10:33;57.83;;;43.13;;
8861;SDS011;4799;50.996;4.754;2022-10-15T03:13:02;54.23;;;40.40;;
8861;SDS011;4799;50.996;4.754;2022-10-15T03:15:29;53.13;;;38.90;;
8861;SDS011;4799;50.996;4.754;2022-10-15T03:17:55;51.07;;;39.13;;
8861;SDS011;4799;50.996;4.754;2022-10-15T03:20:21;51.70;;;39.70;;
8861;SDS011;4799;50.996;4.754;2022-10-15T03:22:46;55.00;;;40.77;;
8861;SDS011;4799;50.996;4.754;2022-10-15T03:25:12;46.87;;;35.47;;
8861;SDS011;4799;50.996;4.754;2022-10-15T03:27:38;48.53;;;37.73;;
8861;SDS011;4799;50.996;4.754;2022-10-15T03:30:03;54.30;;;39.67;;
8861;SDS011;4799;50.996;4.754;2022-10-15T03:32:29;44.37;;;36.30;;
8861;SDS011;4799;50.996;4.754;2022-10-15T03:34:55;43.83;;;34.73;;
8861;SDS011;4799;50.996;4.754;2022-10-15T03:37:21;55.73;;;38.30;;
8861;SDS011;4799;50.996;4.754;2022-10-15T03:39:47;41.30;;;33.67;;
8861;SDS011;4799;50.996;4.754;2022-10-15T03:42:13;44.03;;;34.10;;
8861;SDS011;4799;50.996;4.754;2022-10-15T03:44:38;40.10;;;31.97;;
8861;SDS011;4799;50.996;4.754;2022-10-15T03:47:04;40.00;;;33.47;;
8861;SDS011;4799;50.996;4.754;2022-10-15T03:49:30;37.53;;;29.60;;
8861;SDS011;4799;50.996;4.754;2022-10-15T03:51:55;38.73;;;30.73;;
8861;SDS011;4799;50.996;4.754;2022-10-15T03:54:21;41.47;;;32.03;;
8861;SDS011;4799;50.996;4.754;2022-10-15T03:56:47;44.30;;;33.70;;
8861;SDS011;4799;50.996;4.754;2022-10-15T03:59:12;45.40;;;32.90;;
8861;SDS011;4799;50.996;4.754;2022-10-15T04:01:38;50.37;;;35.20;;
8861;SDS011;4799;50.996;4.754;2022-10-15T04:04:04;50.37;;;35.17;;
8861;SDS011;4799;50.996;4.754;2022-10-15T04:06:29;46.73;;;32.77;;
8861;SDS011;4799;50.996;4.754;2022-10-15T04:08:58;49.50;;;35.03;;
8861;SDS011;4799;50.996;4.754;2022-10-15T04:11:24;54.17;;;36.63;;
8861;SDS011;4799;50.996;4.754;2022-10-15T04:13:50;50.77;;;35.63;;
8861;SDS011;4799;50.996;4.754;2022-10-15T04:16:16;48.60;;;34.03;;
8861;SDS011;4799;50.996;4.754;2022-10-15T04:18:42;52.13;;;35.60;;
8861;SDS011;4799;50.996;4.754;2022-10-15T04:21:08;49.43;;;33.77;;
8861;SDS011;4799;50.996;4.754;2022-10-15T04:23:33;48.47;;;32.50;;
8861;SDS011;4799;50.996;4.754;2022-10-15T04:25:59;46.07;;;32.10;;
8861;SDS011;4799;50.996;4.754;2022-10-15T04:28:26;47.93;;;33.27;;
8861;SDS011;4799;50.996;4.754;2022-10-15T04:30:56;47.80;;;32.23;;
8861;SDS011;4799;50.996;4.754;2022-10-15T04:33:22;44.43;;;31.03;;
8861;SDS011;4799;50.996;4.754;2022-10-15T04:35:56;45.13;;;31.23;;
8861;SDS011;4799;50.996;4.754;2022-10-15T04:38:26;44.13;;;29.93;;
8861;SDS011;4799;50.996;4.754;2022-10-15T04:41:02;45.20;;;30.30;;
8861;SDS011;4799;50.996;4.754;2022-10-15T04:43:33;44.10;;;29.70;;
8861;SDS011;4799;50.996;4.754;2022-10-15T04:46:00;39.87;;;28.53;;
8861;SDS011;4799;50.996;4.754;2022-10-15T04:48:27;49.67;;;31.70;;
8861;SDS011;4799;50.996;4.754;2022-10-15T04:50:53;44.13;;;30.40;;
8861;SDS011;4799;50.996;4.754;2022-10-15T04:53:19;44.90;;;30.17;;
8861;SDS011;4799;50.996;4.754;2022-10-15T04:55:45;48.23;;;31.07;;
8861;SDS011;4799;50.996;4.754;2022-10-15T04:58:12;39.43;;;28.87;;
8861;SDS011;4799;50.996;4.754;2022-10-15T05:00:38;46.57;;;30.87;;
8861;SDS011;4799;50.996;4.754;2022-10-15T05:03:04;44.63;;;29.83;;
8861;SDS011;4799;50.996;4.754;2022-10-15T05:05:30;45.20;;;29.60;;
8861;SDS011;4799;50.996;4.754;2022-10-15T05:08:00;43.67;;;29.30;;
8861;SDS011;4799;50.996;4.754;2022-10-15T05:10:27;40.00;;;26.50;;
8861;SDS011;4799;50.996;4.754;2022-10-15T05:12:53;39.13;;;26.33;;
8861;SDS011;4799;50.996;4.754;2022-10-15T05:15:19;46.43;;;28.73;;
8861;SDS011;4799;50.996;4.754;2022-10-15T05:17:44;41.07;;;27.53;;
8861;SDS011;4799;50.996;4.754;2022-10-15T05:20:10;38.67;;;26.93;;
8861;SDS011;4799;50.996;4.754;2022-10-15T05:22:36;37.73;;;26.83;;
8861;SDS011;4799;50.996;4.754;2022-10-15T05:25:02;33.23;;;25.03;;
8861;SDS011;4799;50.996;4.754;2022-10-15T05:27:28;47.33;;;29.43;;
8861;SDS011;4799;50.996;4.754;2022-10-15T05:29:54;33.87;;;24.63;;
8861;SDS011;4799;50.996;4.754;2022-10-15T05:32:19;32.40;;;23.70;;
8861;SDS011;4799;50.996;4.754;2022-10-15T05:34:45;31.63;;;22.97;;
8861;SDS011;4799;50.996;4.754;2022-10-15T05:37:11;34.00;;;24.07;;
8861;SDS011;4799;50.996;4.754;2022-10-15T05:39:36;38.03;;;25.00;;
8861;SDS011;4799;50.996;4.754;2022-10-15T05:42:02;31.60;;;23.83;;
8861;SDS011;4799;50.996;4.754;2022-10-15T05:44:28;31.70;;;23.27;;
8861;SDS011;4799;50.996;4.754;2022-10-15T05:46:53;34.27;;;23.90;;
8861;SDS011;4799;50.996;4.754;2022-10-15T05:49:19;35.63;;;25.33;;
8861;SDS011;4799;50.996;4.754;2022-10-15T05:51:45;35.77;;;24.23;;
8861;SDS011;4799;50.996;4.754;2022-10-15T05:54:10;34.57;;;23.90;;
8861;SDS011;4799;50.996;4.754;2022-10-15T05:56:36;31.63;;;22.87;;
8861;SDS011;4799;50.996;4.754;2022-10-15T05:59:02;35.97;;;24.57;;
8861;SDS011;4799;50.996;4.754;2022-10-15T06:01:28;30.90;;;22.70;;
8861;SDS011;4799;50.996;4.754;2022-10-15T06:03:54;28.63;;;20.53;;
8861;SDS011;4799;50.996;4.754;2022-10-15T06:06:21;28.87;;;22.17;;
8861;SDS011;4799;50.996;4.754;2022-10-15T06:08:48;30.67;;;21.10;;
8861;SDS011;4799;50.996;4.754;2022-10-15T06:11:15;30.50;;;21.53;;
8861;SDS011;4799;50.996;4.754;2022-10-15T06:13:41;29.10;;;19.97;;
8861;SDS011;4799;50.996;4.754;2022-10-15T06:16:08;28.83;;;19.23;;
8861;SDS011;4799;50.996;4.754;2022-10-15T06:18:34;23.80;;;17.33;;
8861;SDS011;4799;50.996;4.754;2022-10-15T06:21:01;24.40;;;16.93;;
8861;SDS011;4799;50.996;4.754;2022-10-15T06:23:27;22.73;;;17.00;;
8861;SDS011;4799;50.996;4.754;2022-10-15T06:25:53;23.50;;;15.40;;
8861;SDS011;4799;50.996;4.754;2022-10-15T06:28:19;19.90;;;15.07;;
8861;SDS011;4799;50.996;4.754;2022-10-15T06:30:44;18.23;;;13.90;;
8861;SDS011;4799;50.996;4.754;2022-10-15T06:33:10;17.83;;;13.47;;
8861;SDS011;4799;50.996;4.754;2022-10-15T06:35:36;18.07;;;13.77;;
8861;SDS011;4799;50.996;4.754;2022-10-15T06:38:02;19.30;;;13.77;;
8861;SDS011;4799;50.996;4.754;2022-10-15T06:40:28;14.63;;;12.40;;
8861;SDS011;4799;50.996;4.754;2022-10-15T06:43:01;15.07;;;12.40;;
8861;SDS011;4799;50.996;4.754;2022-10-15T06:45:32;17.23;;;12.40;;
8861;SDS011;4799;50.996;4.754;2022-10-15T06:48:01;11.77;;;10.07;;
8861;SDS011;4799;50.996;4.754;2022-10-15T06:50:29;13.07;;;11.10;;
8861;SDS011;4799;50.996;4.754;2022-10-15T06:52:58;11.07;;;9.63;;
8861;SDS011;4799;50.996;4.754;2022-10-15T06:55:24;13.67;;;10.60;;
8861;SDS011;4799;50.996;4.754;2022-10-15T06:57:50;12.13;;;10.03;;
8861;SDS011;4799;50.996;4.754;2022-10-15T07:00:15;10.73;;;9.63;;
8861;SDS011;4799;50.996;4.754;2022-10-15T07:02:41;10.90;;;9.13;;
8861;SDS011;4799;50.996;4.754;2022-10-15T07:05:07;10.50;;;9.27;;
8861;SDS011;4799;50.996;4.754;2022-10-15T07:07:33;10.27;;;9.00;;
8861;SDS011;4799;50.996;4.754;2022-10-15T07:09:59;10.00;;;8.73;;
8861;SDS011;4799;50.996;4.754;2022-10-15T07:12:25;10.23;;;9.23;;
8861;SDS011;4799;50.996;4.754;2022-10-15T07:14:50;10.60;;;8.40;;
8861;SDS011;4799;50.996;4.754;2022-10-15T07:17:16;8.73;;;7.70;;
8861;SDS011;4799;50.996;4.754;2022-10-15T07:19:42;8.87;;;7.50;;
8861;SDS011;4799;50.996;4.754;2022-10-15T07:22:08;10.50;;;7.70;;
8861;SDS011;4799;50.996;4.754;2022-10-15T07:24:34;9.80;;;7.53;;
8861;SDS011;4799;50.996;4.754;2022-10-15T07:27:00;8.27;;;7.47;;
8861;SDS011;4799;50.996;4.754;2022-10-15T07:29:26;8.17;;;7.37;;
8861;SDS011;4799;50.996;4.754;2022-10-15T07:31:52;10.00;;;7.93;;
8861;SDS011;4799;50.996;4.754;2022-10-15T07:34:18;8.40;;;7.53;;
8861;SDS011;4799;50.996;4.754;2022-10-15T07:36:43;8.90;;;8.00;;
8861;SDS011;4799;50.996;4.754;2022-10-15T07:39:09;8.57;;;7.73;;
8861;SDS011;4799;50.996;4.754;2022-10-15T07:41:35;7.70;;;7.00;;
8861;SDS011;4799;50.996;4.754;2022-10-15T07:44:01;8.67;;;7.77;;
8861;SDS011;4799;50.996;4.754;2022-10-15T07:46:27;8.33;;;7.43;;
8861;SDS011;4799;50.996;4.754;2022-10-15T07:48:53;8.33;;;7.50;;
8861;SDS011;4799;50.996;4.754;2022-10-15T07:51:19;7.97;;;7.17;;
8861;SDS011;4799;50.996;4.754;2022-10-15T07:53:45;7.60;;;6.90;;
8861;SDS011;4799;50.996;4.754;2022-10-15T07:56:12;7.67;;;7.03;;
8861;SDS011;4799;50.996;4.754;2022-10-15T07:58:39;7.37;;;6.67;;
8861;SDS011;4799;50.996;4.754;2022-10-15T08:01:06;7.30;;;6.60;;
8861;SDS011;4799;50.996;4.754;2022-10-15T08:03:33;6.73;;;6.13;;
8861;SDS011;4799;50.996;4.754;2022-10-15T08:06:00;6.10;;;5.57;;
8861;SDS011;4799;50.996;4.754;2022-10-15T08:08:27;6.00;;;5.50;;
8861;SDS011;4799;50.996;4.754;2022-10-15T08:10:53;5.10;;;4.70;;
8861;SDS011;4799;50.996;4.754;2022-10-15T08:13:20;4.97;;;4.47;;
8861;SDS011;4799;50.996;4.754;2022-10-15T08:15:46;4.90;;;4.50;;
8861;SDS011;4799;50.996;4.754;2022-10-15T08:18:11;4.80;;;4.30;;
8861;SDS011;4799;50.996;4.754;2022-10-15T08:20:37;4.37;;;3.97;;
8861;SDS011;4799;50.996;4.754;2022-10-15T08:23:04;4.47;;;4.07;;
8861;SDS011;4799;50.996;4.754;2022-10-15T08:25:30;4.33;;;3.97;;
8861;SDS011;4799;50.996;4.754;2022-10-15T08:27:56;3.87;;;3.57;;
8861;SDS011;4799;50.996;4.754;2022-10-15T08:30:23;3.30;;;3.10;;
8861;SDS011;4799;50.996;4.754;2022-10-15T08:32:49;3.33;;;3.00;;
8861;SDS011;4799;50.996;4.754;2022-10-15T08:35:15;3.37;;;3.03;;
8861;SDS011;4799;50.996;4.754;2022-10-15T08:37:40;3.00;;;2.70;;
8861;SDS011;4799;50.996;4.754;2022-10-15T08:40:06;2.90;;;2.70;;
8861;SDS011;4799;50.996;4.754;2022-10-15T08:42:38;2.57;;;2.30;;
8861;SDS011;4799;50.996;4.754;2022-10-15T08:45:17;2.30;;;2.10;;
8861;SDS011;4799;50.996;4.754;2022-10-15T08:50:25;3.63;;;1.80;;
8861;SDS011;4799;50.996;4.754;2022-10-15T08:53:04;1.70;;;1.60;;
8861;SDS011;4799;50.996;4.754;2022-10-15T08:55:33;1.93;;;1.33;;
8861;SDS011;4799;50.996;4.754;2022-10-15T08:58:04;1.50;;;1.40;;
8861;SDS011;4799;50.996;4.754;2022-10-15T09:00:42;1.47;;;1.37;;
8861;SDS011;4799;50.996;4.754;2022-10-15T09:03:36;1.40;;;1.30;;
8861;SDS011;4799;50.996;4.754;2022-10-15T09:06:15;1.40;;;1.30;;
8861;SDS011;4799;50.996;4.754;2022-10-15T09:08:51;3.93;;;1.30;;
8861;SDS011;4799;50.996;4.754;2022-10-15T09:11:41;1.40;;;1.10;;
8861;SDS011;4799;50.996;4.754;2022-10-15T09:14:34;2.50;;;1.03;;
8861;SDS011;4799;50.996;4.754;2022-10-15T09:17:08;2.03;;;1.30;;
8861;SDS011;4799;50.996;4.754;2022-10-15T09:19:44;1.30;;;1.03;;
8861;SDS011;4799;50.996;4.754;2022-10-15T09:22:13;1.93;;;1.10;;
8861;SDS011;4799;50.996;4.754;2022-10-15T09:24:41;2.80;;;1.17;;
8861;SDS011;4799;50.996;4.754;2022-10-15T09:30:05;1.73;;;1.13;;
8861;SDS011;4799;50.996;4.754;2022-10-15T09:32:51;2.20;;;1.10;;
8861;SDS011;4799;50.996;4.754;2022-10-15T09:35:45;2.27;;;1.00;;
8861;SDS011;4799;50.996;4.754;2022-10-15T09:41:03;1.87;;;1.00;;
8861;SDS011;4799;50.996;4.754;2022-10-15T09:43:52;2.50;;;1.23;;
8861;SDS011;4799;50.996;4.754;2022-10-15T09:46:21;1.50;;;1.20;;
8861;SDS011;4799;50.996;4.754;2022-10-15T09:49:02;1.10;;;1.00;;
8861;SDS011;4799;50.996;4.754;2022-10-15T09:51:39;1.97;;;1.13;;
8861;SDS011;4799;50.996;4.754;2022-10-15T09:56:45;1.63;;;1.27;;
8861;SDS011;4799;50.996;4.754;2022-10-15T09:59:21;1.53;;;1.20;;
8861;SDS011;4799;50.996;4.754;2022-10-15T10:01:55;1.57;;;1.20;;
8861;SDS011;4799;50.996;4.754;2022-10-15T10:04:41;2.93;;;1.13;;
8861;SDS011;4799;50.996;4.754;2022-10-15T10:07:07;2.03;;;1.30;;
8861;SDS011;4799;50.996;4.754;2022-10-15T10:09:57;1.80;;;1.50;;
8861;SDS011;4799;50.996;4.754;2022-10-15T10:12:33;3.33;;;1.40;;
8861;SDS011;4799;50.996;4.754;2022-10-15T10:17:59;1.27;;;1.10;;
8861;SDS011;4799;50.996;4.754;2022-10-15T10:20:29;2.00;;;1.33;;
8861;SDS011;4799;50.996;4.754;2022-10-15T10:23:02;1.50;;;1.17;;
8861;SDS011;4799;50.996;4.754;2022-10-15T10:25:45;2.27;;;1.23;;
8861;SDS011;4799;50.996;4.754;2022-10-15T10:28:20;3.67;;;1.23;;
8861;SDS011;4799;50.996;4.754;2022-10-15T10:35:50;2.43;;;1.30;;
8861;SDS011;4799;50.996;4.754;2022-10-15T10:38:53;1.83;;;1.20;;
8861;SDS011;4799;50.996;4.754;2022-10-15T10:41:18;3.20;;;1.30;;
8861;SDS011;4799;50.996;4.754;2022-10-15T10:43:54;1.63;;;1.30;;
8861;SDS011;4799;50.996;4.754;2022-10-15T10:46:21;1.67;;;1.30;;
8861;SDS011;4799;50.996;4.754;2022-10-15T10:48:52;1.70;;;1.30;;
8861;SDS011;4799;50.996;4.754;2022-10-15T10:51:20;1.73;;;1.63;;
8861;SDS011;4799;50.996;4.754;2022-10-15T10:54:01;2.20;;;1.37;;
8861;SDS011;4799;50.996;4.754;2022-10-15T10:56:33;1.67;;;1.20;;
8861;SDS011;4799;50.996;4.754;2022-10-15T10:59:13;2.43;;;1.53;;
8861;SDS011;4799;50.996;4.754;2022-10-15T11:01:46;1.87;;;1.23;;
8861;SDS011;4799;50.996;4.754;2022-10-15T11:04:12;3.70;;;1.43;;
8861;SDS011;4799;50.996;4.754;2022-10-15T11:14:48;1.97;;;1.20;;
8861;SDS011;4799;50.996;4.754;2022-10-15T11:20:30;1.20;;;1.03;;
8861;SDS011;4799;50.996;4.754;2022-10-15T11:31:12;1.47;;;0.87;;
8861;SDS011;4799;50.996;4.754;2022-10-15T11:33:51;0.90;;;0.90;;
8861;SDS011;4799;50.996;4.754;2022-10-15T11:38:59;0.90;;;0.80;;
8861;SDS011;4799;50.996;4.754;2022-10-15T11:52:42;1.60;;;0.90;;
8861;SDS011;4799;50.996;4.754;2022-10-15T11:55:20;2.70;;;0.97;;
8861;SDS011;4799;50.996;4.754;2022-10-15T11:57:53;0.93;;;0.80;;
8861;SDS011;4799;50.996;4.754;2022-10-15T12:03:38;1.00;;;0.83;;
8861;SDS011;4799;50.996;4.754;2022-10-15T12:08:34;1.77;;;1.07;;
8861;SDS011;4799;50.996;4.754;2022-10-15T12:11:15;1.23;;;0.97;;
8861;SDS011;4799;50.996;4.754;2022-10-15T12:16:38;1.20;;;1.10;;
8861;SDS011;4799;50.996;4.754;2022-10-15T12:19:21;1.20;;;1.10;;
8861;SDS011;4799;50.996;4.754;2022-10-15T12:22:09;1.27;;;1.10;;
8861;SDS011;4799;50.996;4.754;2022-10-15T12:29:39;1.77;;;1.00;;
8861;SDS011;4799;50.996;4.754;2022-10-15T12:32:12;1.30;;;0.90;;
8861;SDS011;4799;50.996;4.754;2022-10-15T12:34:55;2.13;;;0.90;;
8861;SDS011;4799;50.996;4.754;2022-10-15T12:37:24;1.03;;;1.00;;
8861;SDS011;4799;50.996;4.754;2022-10-15T12:39:59;1.50;;;1.10;;
8861;SDS011;4799;50.996;4.754;2022-10-15T12:44:59;2.50;;;1.20;;
8861;SDS011;4799;50.996;4.754;2022-10-15T12:50:37;1.97;;;1.30;;
8861;SDS011;4799;50.996;4.754;2022-10-15T12:58:41;1.53;;;1.10;;
8861;SDS011;4799;50.996;4.754;2022-10-15T13:11:43;0.90;;;0.70;;
8861;SDS011;4799;50.996;4.754;2022-10-15T13:14:25;1.67;;;0.70;;
8861;SDS011;4799;50.996;4.754;2022-10-15T13:16:58;1.13;;;0.67;;
8861;SDS011;4799;50.996;4.754;2022-10-15T13:19:51;2.47;;;0.90;;
8861;SDS011;4799;50.996;4.754;2022-10-15T13:22:22;0.90;;;0.70;;
8861;SDS011;4799;50.996;4.754;2022-10-15T13:24:53;0.70;;;0.60;;
8861;SDS011;4799;50.996;4.754;2022-10-15T13:32:26;2.07;;;0.73;;
8861;SDS011;4799;50.996;4.754;2022-10-15T13:34:58;2.60;;;1.20;;
8861;SDS011;4799;50.996;4.754;2022-10-15T13:37:30;2.03;;;0.90;;
8861;SDS011;4799;50.996;4.754;2022-10-15T13:39:58;1.27;;;0.80;;
8861;SDS011;4799;50.996;4.754;2022-10-15T13:42:25;1.17;;;0.70;;
8861;SDS011;4799;50.996;4.754;2022-10-15T13:44:56;1.90;;;1.03;;
8861;SDS011;4799;50.996;4.754;2022-10-15T13:47:26;3.60;;;0.90;;
8861;SDS011;4799;50.996;4.754;2022-10-15T13:50:09;2.87;;;1.13;;
8861;SDS011;4799;50.996;4.754;2022-10-15T13:52:46;1.47;;;0.90;;
8861;SDS011;4799;50.996;4.754;2022-10-15T13:55:29;2.13;;;1.10;;
8861;SDS011;4799;50.996;4.754;2022-10-15T13:58:02;2.70;;;0.90;;
8861;SDS011;4799;50.996;4.754;2022-10-15T14:00:48;4.37;;;1.20;;
8861;SDS011;4799;50.996;4.754;2022-10-15T14:03:24;2.27;;;1.00;;
8861;SDS011;4799;50.996;4.754;2022-10-15T14:05:52;2.47;;;1.00;;
8861;SDS011;4799;50.996;4.754;2022-10-15T14:10:49;2.23;;;1.03;;
8861;SDS011;4799;50.996;4.754;2022-10-15T14:13:17;3.33;;;1.00;;
8861;SDS011;4799;50.996;4.754;2022-10-15T14:15:48;2.73;;;1.00;;
8861;SDS011;4799;50.996;4.754;2022-10-15T14:18:24;2.53;;;1.00;;
8861;SDS011;4799;50.996;4.754;2022-10-15T14:20:55;2.47;;;1.10;;
8861;SDS011;4799;50.996;4.754;2022-10-15T14:23:22;2.97;;;1.00;;
8861;SDS011;4799;50.996;4.754;2022-10-15T14:25:57;2.87;;;1.10;;
8861;SDS011;4799;50.996;4.754;2022-10-15T14:28:25;2.90;;;1.20;;
8861;SDS011;4799;50.996;4.754;2022-10-15T14:30:53;1.43;;;1.00;;
8861;SDS011;4799;50.996;4.754;2022-10-15T14:38:38;2.57;;;0.90;;
8861;SDS011;4799;50.996;4.754;2022-10-15T14:41:21;3.07;;;1.17;;
8861;SDS011;4799;50.996;4.754;2022-10-15T14:44:14;3.47;;;1.27;;
8861;SDS011;4799;50.996;4.754;2022-10-15T14:46:43;2.67;;;1.17;;
8861;SDS011;4799;50.996;4.754;2022-10-15T14:49:19;1.67;;;1.00;;
8861;SDS011;4799;50.996;4.754;2022-10-15T14:51:53;2.63;;;1.00;;
8861;SDS011;4799;50.996;4.754;2022-10-15T14:54:26;2.50;;;1.20;;
8861;SDS011;4799;50.996;4.754;2022-10-15T14:56:57;2.00;;;1.10;;
8861;SDS011;4799;50.996;4.754;2022-10-15T14:59:24;2.33;;;1.00;;
8861;SDS011;4799;50.996;4.754;2022-10-15T15:01:55;3.83;;;1.20;;
8861;SDS011;4799;50.996;4.754;2022-10-15T15:04:31;1.93;;;1.20;;
8861;SDS011;4799;50.996;4.754;2022-10-15T15:06:58;4.37;;;1.40;;
8861;SDS011;4799;50.996;4.754;2022-10-15T15:09:24;1.97;;;1.20;;
8861;SDS011;4799;50.996;4.754;2022-10-15T15:11:50;2.83;;;1.20;;
8861;SDS011;4799;50.996;4.754;2022-10-15T15:14:23;1.67;;;1.03;;
8861;SDS011;4799;50.996;4.754;2022-10-15T15:16:49;2.93;;;1.13;;
8861;SDS011;4799;50.996;4.754;2022-10-15T15:19:15;1.90;;;1.00;;
8861;SDS011;4799;50.996;4.754;2022-10-15T15:21:41;2.40;;;1.00;;
8861;SDS011;4799;50.996;4.754;2022-10-15T15:24:10;3.27;;;1.23;;
8861;SDS011;4799;50.996;4.754;2022-10-15T15:26:36;2.40;;;1.40;;
8861;SDS011;4799;50.996;4.754;2022-10-15T15:29:01;2.23;;;1.07;;
8861;SDS011;4799;50.996;4.754;2022-10-15T15:31:33;2.97;;;1.30;;
8861;SDS011;4799;50.996;4.754;2022-10-15T15:33:59;3.37;;;1.23;;
8861;SDS011;4799;50.996;4.754;2022-10-15T15:36:24;2.80;;;1.30;;
8861;SDS011;4799;50.996;4.754;2022-10-15T15:38:50;3.70;;;1.20;;
8861;SDS011;4799;50.996;4.754;2022-10-15T15:41:20;2.73;;;1.10;;
8861;SDS011;4799;50.996;4.754;2022-10-15T15:43:47;2.47;;;1.30;;
8861;SDS011;4799;50.996;4.754;2022-10-15T15:46:14;7.77;;;1.47;;
8861;SDS011;4799;50.996;4.754;2022-10-15T15:48:40;2.93;;;1.13;;
8861;SDS011;4799;50.996;4.754;2022-10-15T15:51:18;2.23;;;0.90;;
8861;SDS011;4799;50.996;4.754;2022-10-15T15:53:46;4.57;;;1.33;;
8861;SDS011;4799;50.996;4.754;2022-10-15T15:56:12;2.20;;;1.00;;
8861;SDS011;4799;50.996;4.754;2022-10-15T15:58:38;3.33;;;1.10;;
8861;SDS011;4799;50.996;4.754;2022-10-15T16:01:03;2.23;;;1.20;;
8861;SDS011;4799;50.996;4.754;2022-10-15T16:03:29;3.90;;;1.93;;
8861;SDS011;4799;50.996;4.754;2022-10-15T16:05:55;3.03;;;1.60;;
8861;SDS011;4799;50.996;4.754;2022-10-15T16:08:21;4.00;;;1.40;;
8861;SDS011;4799;50.996;4.754;2022-10-15T16:10:46;6.23;;;1.60;;
8861;SDS011;4799;50.996;4.754;2022-10-15T16:13:12;2.50;;;1.50;;
8861;SDS011;4799;50.996;4.754;2022-10-15T16:15:38;4.77;;;1.40;;
8861;SDS011;4799;50.996;4.754;2022-10-15T16:18:03;3.57;;;1.40;;
8861;SDS011;4799;50.996;4.754;2022-10-15T16:20:29;4.63;;;1.40;;
8861;SDS011;4799;50.996;4.754;2022-10-15T16:22:55;5.00;;;2.03;;
8861;SDS011;4799;50.996;4.754;2022-10-15T16:25:20;4.43;;;1.80;;
8861;SDS011;4799;50.996;4.754;2022-10-15T16:27:46;3.23;;;1.50;;
8861;SDS011;4799;50.996;4.754;2022-10-15T16:30:20;3.57;;;1.60;;
8861;SDS011;4799;50.996;4.754;2022-10-15T16:32:46;6.47;;;2.17;;
8861;SDS011;4799;50.996;4.754;2022-10-15T16:35:12;2.67;;;1.47;;
8861;SDS011;4799;50.996;4.754;2022-10-15T16:37:38;3.63;;;1.53;;
8861;SDS011;4799;50.996;4.754;2022-10-15T16:40:03;4.03;;;1.77;;
8861;SDS011;4799;50.996;4.754;2022-10-15T16:42:29;3.37;;;1.50;;
8861;SDS011;4799;50.996;4.754;2022-10-15T16:44:55;5.73;;;1.93;;
8861;SDS011;4799;50.996;4.754;2022-10-15T16:47:21;2.87;;;1.40;;
8861;SDS011;4799;50.996;4.754;2022-10-15T16:49:46;4.10;;;2.10;;
8861;SDS011;4799;50.996;4.754;2022-10-15T16:52:12;3.63;;;1.40;;
8861;SDS011;4799;50.996;4.754;2022-10-15T16:54:38;2.97;;;1.77;;
8861;SDS011;4799;50.996;4.754;2022-10-15T16:57:04;3.43;;;1.40;;
8861;SDS011;4799;50.996;4.754;2022-10-15T16:59:30;4.10;;;1.60;;
8861;SDS011;4799;50.996;4.754;2022-10-15T17:01:56;6.20;;;2.23;;
8861;SDS011;4799;50.996;4.754;2022-10-15T17:04:22;4.37;;;1.70;;
8861;SDS011;4799;50.996;4.754;2022-10-15T17:06:48;5.30;;;1.70;;
8861;SDS011;4799;50.996;4.754;2022-10-15T17:09:14;6.50;;;2.10;;
8861;SDS011;4799;50.996;4.754;2022-10-15T17:11:40;3.37;;;1.60;;
8861;SDS011;4799;50.996;4.754;2022-10-15T17:14:08;6.03;;;2.17;;
8861;SDS011;4799;50.996;4.754;2022-10-15T17:16:37;2.83;;;1.80;;
8861;SDS011;4799;50.996;4.754;2022-10-15T17:19:04;2.70;;;1.90;;
8861;SDS011;4799;50.996;4.754;2022-10-15T17:21:30;4.70;;;2.00;;
8861;SDS011;4799;50.996;4.754;2022-10-15T17:23:57;4.07;;;2.00;;
8861;SDS011;4799;50.996;4.754;2022-10-15T17:26:28;3.63;;;1.90;;
8861;SDS011;4799;50.996;4.754;2022-10-15T17:28:57;4.93;;;2.03;;
8861;SDS011;4799;50.996;4.754;2022-10-15T17:31:24;4.03;;;1.80;;